Flight Track Log - Related Links

Times and Time Zones

All times are in EST time to prevent confusion due to time zone crossing. See the DAL1332 flight status page for this flight to view local times or setup timezone preferences in your user account.

Time Position Orientation Groundspeed Altitude Reporting Facility
EST Latitude Longitude Course Direction KTS MPH feet Rate Location/Type
Sat 11:13:53 AM 26.5908 -81.7117 350° North 229 264 3,300  Level Miami Center
Sat 11:14:53 AM 26.6572 -81.7189 354° North 260 299 6,900 3,400 Climbing Miami Center
Sat 11:15:00 AM 26.8259 -81.7333 North  Level FlightAware Approximate
Sat 11:15:53 AM 26.7322 -81.7267 355° North 278 320 10,100  Level Miami Center
Sat 11:16:00 AM 26.9239 -81.7333 360° North  Level FlightAware Approximate
Sat 11:16:53 AM 26.8281 -81.7308 358° North 310 357 13,100  Level Miami Center
Sat 11:17:00 AM 27.0216 -81.7353 340° North  Level FlightAware Approximate
Sat 11:17:53 AM 26.9175 -81.7369 357° North 323 372 16,500  Level Miami Center
Sat 11:18:00 AM 27.1141 -81.7714 343° North  Level FlightAware Approximate
Sat 11:18:53 AM 27.0050 -81.7428 357° North 333 383 17,000  Level Miami Center
Sat 11:19:00 AM 27.2096 -81.7952 350° North  Level FlightAware Approximate
Sat 11:19:53 AM 27.1042 -81.7728 345° North 333 383 18,100  Level Miami Center
Sat 11:20:53 AM 27.2014 -81.8047 344° North 345 397 20,700 2,400 Climbing Miami Center
Sat 11:21:53 AM 27.3003 -81.8369 344° North 361 415 22,900 1,859 Climbing Miami Center
Sat 11:25:37 AM 27.6836 -81.9739 342° North 395 455 29,500 1,648 Climbing Jacksonville Center
Sat 11:26:37 AM 27.8089 -82.0081 346° North 413 475 30,700 1,450 Climbing Jacksonville Center
Sat 11:27:37 AM 27.9278 -82.0117 358° North 429 494 32,400 1,450 Climbing Jacksonville Center
Sat 11:28:37 AM 28.0367 -82.0556 340° North 420 483 33,600 1,300 Climbing Jacksonville Center
Sat 11:29:37 AM 28.1228 -82.1372 320° Northwest 401 461 35,000 1,350 Climbing Jacksonville Center
Sat 11:30:37 AM 28.2108 -82.2167 322° Northwest 401 461 36,300 1,200 Climbing Jacksonville Center
Sat 11:31:37 AM 28.3031 -82.2986 322° Northwest 406 467 37,400 850 Climbing Jacksonville Center
Sat 11:32:37 AM 28.3931 -82.3733 324° Northwest 406 467 38,000 250 Climbing Jacksonville Center
Sat 11:33:37 AM 28.4914 -82.4392 330° Northwest 406 467 37,900  Descending Jacksonville Center
Sat 11:34:37 AM 28.5917 -82.5072 329° Northwest 406 467 38,000 50 Climbing Jacksonville Center
Sat 11:35:37 AM 28.6900 -82.5756 329° Northwest 411 473 38,000  Level Jacksonville Center
Sat 11:36:37 AM 28.7842 -82.6392 329° Northwest 405 466 38,000  Level Jacksonville Center
Sat 11:37:37 AM 28.8844 -82.7053 330° Northwest 410 472 38,000  Level Jacksonville Center
Sat 11:38:37 AM 28.9825 -82.7739 329° Northwest 410 472 38,000  Level Jacksonville Center
Sat 11:39:37 AM 29.0808 -82.8403 329° Northwest 410 472 38,000 -50 Level Jacksonville Center
Sat 11:40:37 AM 29.1767 -82.9069 329° Northwest 410 472 37,900  Descending Jacksonville Center
Sat 11:41:37 AM 29.2769 -82.9736 330° Northwest 410 472 38,000 50 Climbing Jacksonville Center
Sat 11:42:37 AM 29.3750 -83.0403 329° Northwest 410 472 38,000 -50 Level Jacksonville Center
Sat 11:43:37 AM 29.4689 -83.1097 327° Northwest 410 472 37,900 -200 Descending Jacksonville Center
Sat 11:44:37 AM 29.5708 -83.1814 329° Northwest 403 464 37,600 -750 Descending Jacksonville Center
Sat 11:45:37 AM 29.6669 -83.2464 330° Northwest 409 471 36,400 -850 Descending Jacksonville Center
Sat 11:46:37 AM 29.7544 -83.3089 328° Northwest 409 471 35,900 -200 Descending Jacksonville Center
Sat 11:47:37 AM 29.8522 -83.3739 330° Northwest 409 471 36,000  Climbing Jacksonville Center
Sat 11:48:37 AM 29.9500 -83.4392 330° Northwest 409 471 35,900  Descending Jacksonville Center
Sat 11:49:37 AM 30.0478 -83.5069 329° Northwest 409 471 36,000 50 Climbing Jacksonville Center
Sat 11:50:37 AM 30.1414 -83.5747 328° Northwest 409 471 36,000  Level Jacksonville Center
Sat 11:51:37 AM 30.2392 -83.6428 329° Northwest 409 471 36,000 -50 Level Jacksonville Center
Sat 11:52:37 AM 30.3350 -83.7108 328° Northwest 409 471 35,900  Descending Jacksonville Center
Sat 11:53:37 AM 30.4325 -83.7767 330° Northwest 409 471 36,000 50 Climbing Jacksonville Center
Sat 11:54:37 AM 30.5281 -83.8453 328° Northwest 409 471 36,000 -300 Level Jacksonville Center
Sat 11:55:37 AM 30.6278 -83.9186 328° Northwest 403 464 35,400 -950 Descending Jacksonville Center
Sat 11:56:37 AM 30.7233 -83.9872 328° Northwest 403 464 34,100 -700 Descending Jacksonville Center
Sat 11:57:37 AM 30.8208 -84.0561 329° Northwest 403 464 34,000 -50 Descending Jacksonville Center
Sat 11:58:37 AM 30.9183 -84.1228 330° Northwest 408 470 34,000  Level Jacksonville Center
Sat 11:59:37 AM 31.0117 -84.1919 328° Northwest 408 470 34,000  Level Jacksonville Center
Sat 12:01:10 PM 31.1536 -84.2936 329° Northwest 427 491 34,000  Level Atlanta Center
Sat 12:02:10 PM 31.2475 -84.3619 328° Northwest 416 479 34,000  Level Atlanta Center
Sat 12:03:10 PM 31.3433 -84.4303 329° Northwest 406 467 34,000  Level Atlanta Center
Sat 12:04:10 PM 31.4389 -84.4989 329° Northwest 406 467 34,000  Level Atlanta Center
Sat 12:05:10 PM 31.5367 -84.5675 329° Northwest 406 467 34,000  Level Atlanta Center
Sat 12:06:10 PM 31.6283 -84.6364 327° Northwest 406 467 34,000 -100 Level Atlanta Center
Sat 12:07:10 PM 31.7303 -84.6933 335° Northwest 406 467 33,800 -550 Descending Atlanta Center
Sat 12:08:10 PM 31.8469 -84.7186 350° North 406 467 32,900 -1,000 Descending Atlanta Center
Sat 12:09:10 PM 31.9594 -84.7464 348° North 406 467 31,800 -950 Descending Atlanta Center
Sat 12:10:10 PM 32.0742 -84.7717 349° North 412 474 31,000 -800 Descending Atlanta Center
Sat 12:11:10 PM 32.1867 -84.7997 348° North 412 474 30,200 -1,000 Descending Atlanta Center
Sat 12:12:10 PM 32.3119 -84.8278 349° North 412 474 29,000 -1,650 Descending Atlanta Center
Sat 12:13:10 PM 32.4286 -84.8508 351° North 412 474 26,900 -1,950 Descending Atlanta Center
Sat 12:14:10 PM 32.5475 -84.8767 350° North 422 486 25,100 -2,050 Descending Atlanta Center
Sat 12:15:10 PM 32.6703 -84.9075 348° North 433 498 22,800 -2,650 Descending Atlanta Center
Sat 12:16:10 PM 32.7808 -84.9333 349° North 426 490 19,800 -3,000 Descending Atlanta Center
Sat 12:17:10 PM 32.8850 -84.9639 346° North 396 456 16,800 -2,750 Descending Atlanta Center
Sat 12:18:10 PM 32.9850 -84.9897 348° North 366 421 14,300 -2,150 Descending Atlanta Center
Sat 12:19:10 PM 33.0786 -85.0081 351° North 354 407 12,500 -1,100 Descending Atlanta Center
Sat 12:20:10 PM 33.1517 -85.0264 348° North 329 379 12,100 -450 Descending Atlanta Center
Sat 12:21:10 PM 33.2208 -84.9897 24° Northeast 273 314 11,600 -900 Descending Atlanta Center
Sat 12:22:10 PM 33.2778 -84.9133 48° Northeast 270 311 10,300 -1,400 Descending Atlanta Center
Sat 12:23:10 PM 33.3303 -84.8419 49° Northeast 277 319 8,800 -1,950 Descending Atlanta Center
Sat 12:24:10 PM 33.4014 -84.8128 19° North 261 300 6,400 -2,400 Descending Atlanta Center
Sat 12:25:10 PM 33.4725 -84.7958 11° North 261 300 4,000 -1,700 Descending Atlanta Center
Sat 12:26:10 PM 33.5375 -84.7492 31° Northeast 256 295 3,000 -392 Descending Atlanta Center
Sat 12:27:43 PM 33.6167 -84.6667 41° Northeast 228 262 3,000  Level Atlanta TRACON
Sat 12:28:43 PM 33.6333 -84.6000 73° East 225 259 3,000 -350 Level Atlanta TRACON
Sat 12:29:43 PM 33.6333 -84.5333 90° East 195 224 2,300 -744 Descending Atlanta TRACON
Sat 12:30:44 PM 33.6333 -84.4833 90° East 139 160 1,500 -787 Descending Atlanta TRACON

Login

Don't have an account? Register now (free) for customized features, flight alerts, and more!